Check out our new PWSWeather beta!
PWSweather.com
Personal Weather Stations
Station Observations
GIRWX1
Presovsky Kraj, GiraltovceSK

Presovsky KrajGiraltovceSK

Lat: 49.118, Lon: 21.52

Elevation: 630

Station Type: wh1080

http://www.meteogiraltovce.wz.cz/

High Low Average
Temperature 47.1°F8.4°C 43.3°F6.3°C 45.6°F7.6°C
Dew Point 42.9°F6.1°C 39.4°F4.1°C 41.6°F5.3°C
Winds 9.9 mph 15.9 kmh Calm Calm 3.0 mph SSE4.8 kmh SSE
Wind Gusts 16.8 mph27.0 kmh -- 6.0 mph9.7 kmh
Humidity 90% 83% 86%
Pressure 29.66 in1004.4 mb 29.55 in1000.7 mb -
Precipitation 0.34 in8.6 mm - -
Hour Temp Dew Point Humidity Winds Wind Gusts Pressure Precip Precip Rate Daily Precip Total
12:00 AM 44.2°F6.8°C 40.0°F4.4°C 85% 5.0 mph SSW8.0 kmh SSW 9.2 mph14.8 kmh 29.66 in1004.4 mb 0.02 in0.5 mm 0.00 in0.0 mm 0.02 in0.5 mm
12:05 AM 44.2°F6.8°C 40.0°F4.4°C 85% 2.2 mph SW3.5 kmh SW 3.8 mph6.1 kmh 29.66 in1004.4 mb 0.02 in0.5 mm 0.00 in0.0 mm 0.02 in0.5 mm
12:10 AM 44.2°F6.8°C 40.0°F4.4°C 85% 3.1 mph SW5.0 kmh SW 5.4 mph8.7 kmh 29.66 in1004.4 mb 0.02 in0.5 mm 0.00 in0.0 mm 0.02 in0.5 mm
12:15 AM 44.1°F6.7°C 39.9°F4.4°C 85% 1.8 mph SW2.9 kmh SW 4.5 mph7.2 kmh 29.66 in1004.4 mb 0.02 in0.5 mm 0.00 in0.0 mm 0.02 in0.5 mm
12:20 AM 44.1°F6.7°C 39.8°F4.3°C 85% 3.2 mph E5.1 kmh E 5.4 mph8.7 kmh 29.66 in1004.4 mb 0.02 in0.5 mm 0.00 in0.0 mm 0.02 in0.5 mm
12:25 AM 44.1°F6.7°C 39.9°F4.4°C 85% 2.2 mph SW3.5 kmh SW 4.5 mph7.2 kmh 29.66 in1004.4 mb 0.02 in0.5 mm 0.00 in0.0 mm 0.02 in0.5 mm
12:30 AM 44.2°F6.8°C 40.1°F4.5°C 85% 2.6 mph WNW4.2 kmh WNW 4.5 mph7.2 kmh 29.66 in1004.4 mb 0.02 in0.5 mm 0.00 in0.0 mm 0.02 in0.5 mm
12:35 AM 44.3°F6.8°C 40.3°F4.6°C 86% 4.7 mph ESE7.6 kmh ESE 7.6 mph12.2 kmh 29.66 in1004.4 mb 0.01 in0.3 mm 0.00 in0.0 mm 0.02 in0.5 mm
12:40 AM 44.4°F6.9°C 40.5°F4.7°C 86% 1.9 mph NNE3.1 kmh NNE 6.0 mph9.7 kmh 29.66 in1004.4 mb 0.01 in0.3 mm 0.00 in0.0 mm 0.02 in0.5 mm
12:45 AM 44.6°F7.0°C 40.7°F4.8°C 86% 4.3 mph SSE6.9 kmh SSE 9.2 mph14.8 kmh 29.66 in1004.4 mb 0.01 in0.3 mm 0.00 in0.0 mm 0.02 in0.5 mm
12:50 AM 44.6°F7.0°C 40.7°F4.8°C 86% 6.6 mph S10.6 kmh S 9.8 mph15.8 kmh 29.65 in1004.1 mb 0.01 in0.3 mm 0.00 in0.0 mm 0.01 in0.3 mm
12:55 AM 44.6°F7.0°C 40.7°F4.8°C 86% 9.6 mph S15.4 kmh S 15.2 mph24.5 kmh 29.65 in1004.1 mb 0.01 in0.3 mm 0.00 in0.0 mm 0.01 in0.3 mm
01:00 AM 44.7°F7.1°C 40.8°F4.9°C 86% 8.3 mph S13.4 kmh S 10.7 mph17.2 kmh 29.66 in1004.4 mb 0.00 in0.0 mm 0.00 in0.0 mm 0.01 in0.3 mm
01:05 AM 44.8°F7.1°C 40.9°F4.9°C 86% 7.9 mph S12.7 kmh S 11.4 mph18.3 kmh 29.66 in1004.4 mb 0.00 in0.0 mm 0.00 in0.0 mm 0.01 in0.3 mm
01:10 AM 44.8°F7.1°C 40.9°F4.9°C 86% 8.8 mph SSE14.2 kmh SSE 12.1 mph19.5 kmh 29.66 in1004.4 mb 0.00 in0.0 mm 0.00 in0.0 mm 0.01 in0.3 mm
01:15 AM 44.8°F7.1°C 40.9°F4.9°C 86% 9.5 mph S15.3 kmh S 15.2 mph24.5 kmh 29.66 in1004.4 mb 0.00 in0.0 mm 0.00 in0.0 mm 0.01 in0.3 mm
01:20 AM 44.8°F7.1°C 40.9°F4.9°C 86% 9.9 mph S15.9 kmh S 12.1 mph19.5 kmh 29.65 in1004.1 mb 0.01 in0.3 mm 0.12 in3.0 mm 0.01 in0.3 mm
01:25 AM 44.8°F7.1°C 40.9°F4.9°C 86% 6.7 mph SSE10.8 kmh SSE 9.2 mph14.8 kmh 29.65 in1004.1 mb 0.01 in0.3 mm 0.00 in0.0 mm 0.01 in0.3 mm
01:30 AM 44.7°F7.1°C 40.8°F4.9°C 86% 5.4 mph S8.7 kmh S 9.8 mph15.8 kmh 29.66 in1004.4 mb 0.01 in0.3 mm 0.00 in0.0 mm 0.01 in0.3 mm
01:35 AM 44.6°F7.0°C 40.7°F4.8°C 86% 7.5 mph S12.1 kmh S 10.7 mph17.2 kmh 29.65 in1004.1 mb 0.01 in0.3 mm 0.00 in0.0 mm 0.01 in0.3 mm
01:40 AM 44.5°F6.9°C 40.6°F4.8°C 86% 7.5 mph S12.1 kmh S 11.4 mph18.3 kmh 29.65 in1004.1 mb 0.01 in0.3 mm 0.00 in0.0 mm 0.02 in0.5 mm
01:45 AM 44.4°F6.9°C 40.5°F4.7°C 86% 5.8 mph SSW9.3 kmh SSW 9.8 mph15.8 kmh 29.65 in1004.1 mb 0.01 in0.3 mm 0.00 in0.0 mm 0.02 in0.5 mm
01:50 AM 44.4°F6.9°C 40.5°F4.7°C 86% 8.3 mph SW13.4 kmh SW 13.0 mph20.9 kmh 29.65 in1004.1 mb 0.01 in0.3 mm 0.00 in0.0 mm 0.02 in0.5 mm
01:55 AM 44.4°F6.9°C 40.5°F4.7°C 86% 6.4 mph SSW10.3 kmh SSW 9.8 mph15.8 kmh 29.64 in1003.7 mb 0.01 in0.3 mm 0.00 in0.0 mm 0.02 in0.5 mm
02:00 AM 44.5°F6.9°C 40.6°F4.8°C 86% 7.3 mph SW11.7 kmh SW 9.8 mph15.8 kmh 29.65 in1004.1 mb 0.01 in0.3 mm 0.00 in0.0 mm 0.02 in0.5 mm
02:05 AM 44.6°F7.0°C 40.7°F4.8°C 86% 6.9 mph SW11.1 kmh SW 7.6 mph12.2 kmh 29.64 in1003.7 mb 0.01 in0.3 mm 0.00 in0.0 mm 0.02 in0.5 mm
02:10 AM 44.6°F7.0°C 40.8°F4.9°C 87% 7.5 mph SSW12.1 kmh SSW 11.4 mph18.3 kmh 29.64 in1003.7 mb 0.01 in0.3 mm 0.00 in0.0 mm 0.02 in0.5 mm
02:15 AM 44.6°F7.0°C 41.0°F5.0°C 87% 6.0 mph SSW9.7 kmh SSW 11.4 mph18.3 kmh 29.64 in1003.7 mb 0.01 in0.3 mm 0.00 in0.0 mm 0.02 in0.5 mm
02:20 AM 44.6°F7.0°C 41.0°F5.0°C 87% 7.9 mph SW12.7 kmh SW 10.7 mph17.2 kmh 29.64 in1003.7 mb 0.01 in0.3 mm 0.00 in0.0 mm 0.02 in0.5 mm
02:25 AM 44.6°F7.0°C 41.0°F5.0°C 87% 9.2 mph S14.8 kmh S 12.1 mph19.5 kmh 29.64 in1003.7 mb 0.01 in0.3 mm 0.00 in0.0 mm 0.02 in0.5 mm
02:30 AM 44.6°F7.0°C 41.0°F5.0°C 87% 8.0 mph S12.9 kmh S 13.0 mph20.9 kmh 29.64 in1003.7 mb 0.01 in0.3 mm 0.00 in0.0 mm 0.02 in0.5 mm
02:35 AM 44.6°F7.0°C 41.0°F5.0°C 87% 5.7 mph S9.2 kmh S 9.8 mph15.8 kmh 29.64 in1003.7 mb 0.01 in0.3 mm 0.00 in0.0 mm 0.02 in0.5 mm
02:40 AM 44.8°F7.1°C 41.2°F5.1°C 87% 5.0 mph S8.0 kmh S 9.8 mph15.8 kmh 29.64 in1003.7 mb 0.00 in0.0 mm 0.00 in0.0 mm 0.02 in0.5 mm
02:45 AM 44.8°F7.1°C 41.2°F5.1°C 87% 5.9 mph SSW9.5 kmh SSW 7.6 mph12.2 kmh 29.64 in1003.7 mb 0.00 in0.0 mm 0.00 in0.0 mm 0.02 in0.5 mm
02:50 AM 44.8°F7.1°C 41.2°F5.1°C 87% 8.4 mph S13.5 kmh S 13.6 mph21.9 kmh 29.64 in1003.7 mb 0.00 in0.0 mm 0.00 in0.0 mm 0.02 in0.5 mm
02:55 AM 44.8°F7.1°C 41.2°F5.1°C 87% 8.1 mph SSW13.0 kmh SSW 12.1 mph19.5 kmh 29.64 in1003.7 mb 0.00 in0.0 mm 0.00 in0.0 mm 0.02 in0.5 mm
03:00 AM 44.8°F7.1°C 41.2°F5.1°C 87% 9.5 mph S15.3 kmh S 16.8 mph27.0 kmh 29.64 in1003.7 mb 0.00 in0.0 mm 0.00 in0.0 mm 0.02 in0.5 mm
03:05 AM 44.8°F7.1°C 41.2°F5.1°C 87% 8.8 mph SSE14.2 kmh SSE 15.2 mph24.5 kmh 29.64 in1003.7 mb 0.00 in0.0 mm 0.00 in0.0 mm 0.02 in0.5 mm
03:10 AM 44.8°F7.1°C 41.2°F5.1°C 87% 8.8 mph SSE14.2 kmh SSE 13.0 mph20.9 kmh 29.64 in1003.7 mb 0.00 in0.0 mm 0.00 in0.0 mm 0.02 in0.5 mm
03:15 AM 44.8°F7.1°C 41.2°F5.1°C 87% 5.9 mph S9.5 kmh S 8.3 mph13.4 kmh 29.64 in1003.7 mb 0.00 in0.0 mm 0.00 in0.0 mm 0.02 in0.5 mm
03:20 AM 44.8°F7.1°C 41.2°F5.1°C 87% 5.2 mph S8.4 kmh S 9.2 mph14.8 kmh 29.63 in1003.4 mb 0.00 in0.0 mm 0.00 in0.0 mm 0.02 in0.5 mm
03:25 AM 44.8°F7.1°C 41.0°F5.0°C 86% 4.2 mph SSE6.8 kmh SSE 7.6 mph12.2 kmh 29.64 in1003.7 mb 0.00 in0.0 mm 0.00 in0.0 mm 0.02 in0.5 mm
03:30 AM 44.8°F7.1°C 40.9°F4.9°C 86% 4.2 mph S6.8 kmh S 8.3 mph13.4 kmh 29.64 in1003.7 mb 0.00 in0.0 mm 0.00 in0.0 mm 0.02 in0.5 mm
03:35 AM 44.8°F7.1°C 41.1°F5.1°C 87% 4.0 mph SE6.4 kmh SE 6.0 mph9.7 kmh 29.64 in1003.7 mb 0.00 in0.0 mm 0.00 in0.0 mm 0.02 in0.5 mm
03:40 AM 44.8°F7.1°C 41.2°F5.1°C 87% 5.6 mph S9.0 kmh S 8.3 mph13.4 kmh 29.64 in1003.7 mb 0.00 in0.0 mm 0.00 in0.0 mm 0.02 in0.5 mm
03:45 AM 45.0°F7.2°C 41.3°F5.2°C 87% 5.8 mph S9.3 kmh S 8.3 mph13.4 kmh 29.63 in1003.4 mb 0.00 in0.0 mm 0.00 in0.0 mm 0.02 in0.5 mm
03:50 AM 45.0°F7.2°C 41.4°F5.2°C 87% 5.6 mph S9.0 kmh S 9.8 mph15.8 kmh 29.64 in1003.7 mb 0.00 in0.0 mm 0.00 in0.0 mm 0.02 in0.5 mm
03:55 AM 45.1°F7.3°C 41.5°F5.3°C 87% 4.3 mph SW6.9 kmh SW 9.2 mph14.8 kmh 29.64 in1003.7 mb 0.00 in0.0 mm 0.00 in0.0 mm 0.02 in0.5 mm
04:00 AM 45.1°F7.3°C 41.5°F5.3°C 87% 4.1 mph S6.6 kmh S 6.0 mph9.7 kmh 29.64 in1003.7 mb 0.00 in0.0 mm 0.00 in0.0 mm 0.02 in0.5 mm
04:05 AM 45.1°F7.3°C 41.5°F5.3°C 87% 4.5 mph S7.2 kmh S 6.0 mph9.7 kmh 29.64 in1003.7 mb 0.00 in0.0 mm 0.00 in0.0 mm 0.02 in0.5 mm
04:10 AM 45.1°F7.3°C 41.5°F5.3°C 87% 5.3 mph S8.5 kmh S 9.2 mph14.8 kmh 29.64 in1003.7 mb 0.00 in0.0 mm 0.00 in0.0 mm 0.02 in0.5 mm
04:15 AM 45.1°F7.3°C 41.5°F5.3°C 87% 2.6 mph SSE4.2 kmh SSE 6.0 mph9.7 kmh 29.64 in1003.7 mb 0.00 in0.0 mm 0.00 in0.0 mm 0.02 in0.5 mm
04:20 AM 45.1°F7.3°C 41.5°F5.3°C 87% 4.7 mph SSW7.6 kmh SSW 7.6 mph12.2 kmh 29.64 in1003.7 mb 0.00 in0.0 mm 0.00 in0.0 mm 0.02 in0.5 mm
04:25 AM 45.1°F7.3°C 41.5°F5.3°C 87% 3.8 mph S6.1 kmh S 6.9 mph11.1 kmh 29.64 in1003.7 mb 0.00 in0.0 mm 0.00 in0.0 mm 0.02 in0.5 mm
04:30 AM 45.1°F7.3°C 41.5°F5.3°C 87% 2.6 mph SW4.2 kmh SW 6.0 mph9.7 kmh 29.64 in1003.7 mb 0.00 in0.0 mm 0.00 in0.0 mm 0.02 in0.5 mm
04:35 AM 45.1°F7.3°C 41.5°F5.3°C 87% 2.9 mph SW4.7 kmh SW 6.0 mph9.7 kmh 29.64 in1003.7 mb 0.00 in0.0 mm 0.00 in0.0 mm 0.02 in0.5 mm
04:40 AM 45.1°F7.3°C 41.5°F5.3°C 87% 0.8 mph SW1.3 kmh SW 3.1 mph5.0 kmh 29.64 in1003.7 mb 0.00 in0.0 mm 0.00 in0.0 mm 0.02 in0.5 mm
04:45 AM 45.0°F7.2°C 41.3°F5.2°C 87% 1.6 mph SW2.6 kmh SW 2.2 mph3.5 kmh 29.64 in1003.7 mb 0.00 in0.0 mm 0.00 in0.0 mm 0.02 in0.5 mm
04:50 AM 45.0°F7.2°C 41.3°F5.2°C 87% 2.6 mph SSW4.2 kmh SSW 5.4 mph8.7 kmh 29.64 in1003.7 mb 0.00 in0.0 mm 0.00 in0.0 mm 0.02 in0.5 mm
04:55 AM 45.0°F7.2°C 41.3°F5.2°C 87% 1.7 mph S2.7 kmh S 3.8 mph6.1 kmh 29.64 in1003.7 mb 0.00 in0.0 mm 0.00 in0.0 mm 0.02 in0.5 mm
05:00 AM 44.9°F7.2°C 41.2°F5.1°C 87% 0.1 mph W0.2 kmh W 1.6 mph2.6 kmh 29.65 in1004.1 mb 0.00 in0.0 mm 0.00 in0.0 mm 0.02 in0.5 mm
05:05 AM 44.8°F7.1°C 41.2°F5.1°C 87% Calm Calm -- 29.64 in1003.7 mb 0.00 in0.0 mm 0.00 in0.0 mm 0.02 in0.5 mm
05:10 AM 44.8°F7.1°C 40.9°F4.9°C 86% 0.1 mph NE0.2 kmh NE 1.6 mph2.6 kmh 29.64 in1003.7 mb 0.00 in0.0 mm 0.00 in0.0 mm 0.02 in0.5 mm
05:15 AM 44.7°F7.1°C 40.8°F4.9°C 86% 0.9 mph N1.4 kmh N 2.2 mph3.5 kmh 29.64 in1003.7 mb 0.00 in0.0 mm 0.00 in0.0 mm 0.02 in0.5 mm
05:20 AM 44.6°F7.0°C 40.7°F4.8°C 86% 1.0 mph NE1.6 kmh NE 2.2 mph3.5 kmh 29.64 in1003.7 mb 0.00 in0.0 mm 0.00 in0.0 mm 0.02 in0.5 mm
05:25 AM 44.6°F7.0°C 40.7°F4.8°C 86% 0.5 mph N0.8 kmh N 1.6 mph2.6 kmh 29.65 in1004.1 mb 0.00 in0.0 mm 0.00 in0.0 mm 0.02 in0.5 mm
05:30 AM 44.6°F7.0°C 40.7°F4.8°C 86% Calm Calm 0.7 mph1.1 kmh 29.64 in1003.7 mb 0.00 in0.0 mm 0.00 in0.0 mm 0.02 in0.5 mm
05:35 AM 44.5°F6.9°C 40.6°F4.8°C 86% 0.5 mph N0.8 kmh N 1.6 mph2.6 kmh 29.65 in1004.1 mb 0.00 in0.0 mm 0.00 in0.0 mm 0.02 in0.5 mm
05:40 AM 44.4°F6.9°C 40.5°F4.7°C 86% 0.5 mph E0.8 kmh E 2.2 mph3.5 kmh 29.65 in1004.1 mb 0.00 in0.0 mm 0.00 in0.0 mm 0.02 in0.5 mm
05:45 AM 44.3°F6.8°C 40.4°F4.7°C 86% 1.0 mph NNW1.6 kmh NNW 2.2 mph3.5 kmh 29.65 in1004.1 mb 0.00 in0.0 mm 0.00 in0.0 mm 0.02 in0.5 mm
05:50 AM 44.2°F6.8°C 40.3°F4.6°C 86% 0.7 mph NW1.1 kmh NW 2.2 mph3.5 kmh 29.65 in1004.1 mb 0.00 in0.0 mm 0.00 in0.0 mm 0.02 in0.5 mm
05:55 AM 44.2°F6.8°C 40.3°F4.6°C 86% 1.1 mph NW1.8 kmh NW 2.2 mph3.5 kmh 29.65 in1004.1 mb 0.00 in0.0 mm 0.00 in0.0 mm 0.02 in0.5 mm
06:00 AM 44.1°F6.7°C 40.2°F4.6°C 86% 0.5 mph 0.8 kmh 1.6 mph2.6 kmh 29.65 in1004.1 mb 0.00 in0.0 mm 0.00 in0.0 mm 0.02 in0.5 mm
06:05 AM 44.1°F6.7°C 40.1°F4.5°C 86% Calm Calm 1.6 mph2.6 kmh 29.65 in1004.1 mb 0.00 in0.0 mm 0.00 in0.0 mm 0.02 in0.5 mm
06:10 AM 44.0°F6.7°C 40.1°F4.5°C 86% Calm Calm 1.6 mph2.6 kmh 29.65 in1004.1 mb 0.00 in0.0 mm 0.00 in0.0 mm 0.02 in0.5 mm
06:15 AM 43.9°F6.6°C 39.9°F4.4°C 86% 0.7 mph N1.1 kmh N 1.6 mph2.6 kmh 29.65 in1004.1 mb 0.00 in0.0 mm 0.00 in0.0 mm 0.02 in0.5 mm
06:20 AM 43.7°F6.5°C 39.8°F4.3°C 86% 1.1 mph NE1.8 kmh NE 2.2 mph3.5 kmh 29.65 in1004.1 mb 0.00 in0.0 mm 0.00 in0.0 mm 0.02 in0.5 mm
06:25 AM 43.5°F6.4°C 39.6°F4.2°C 86% 1.0 mph NNW1.6 kmh NNW 2.2 mph3.5 kmh 29.66 in1004.4 mb 0.00 in0.0 mm 0.00 in0.0 mm 0.02 in0.5 mm
06:30 AM 43.5°F6.4°C 39.6°F4.2°C 86% 0.1 mph NW0.2 kmh NW 1.6 mph2.6 kmh 29.66 in1004.4 mb 0.00 in0.0 mm 0.00 in0.0 mm 0.02 in0.5 mm
06:35 AM 43.3°F6.3°C 39.4°F4.1°C 86% 0.5 mph NE0.8 kmh NE 2.2 mph3.5 kmh 29.66 in1004.4 mb 0.00 in0.0 mm 0.00 in0.0 mm 0.02 in0.5 mm
06:40 AM 43.3°F6.3°C 39.4°F4.1°C 86% 1.1 mph N1.8 kmh N 2.2 mph3.5 kmh 29.66 in1004.4 mb 0.00 in0.0 mm 0.00 in0.0 mm 0.02 in0.5 mm
06:45 AM 43.3°F6.3°C 39.4°F4.1°C 86% 1.5 mph N2.4 kmh N 2.2 mph3.5 kmh 29.66 in1004.4 mb 0.00 in0.0 mm 0.00 in0.0 mm 0.02 in0.5 mm
06:50 AM 43.4°F6.3°C 39.5°F4.2°C 86% 1.2 mph NE1.9 kmh NE 2.2 mph3.5 kmh 29.66 in1004.4 mb 0.00 in0.0 mm 0.00 in0.0 mm 0.02 in0.5 mm
06:55 AM 43.5°F6.4°C 39.9°F4.4°C 87% 0.9 mph NNE1.4 kmh NNE 2.2 mph3.5 kmh 29.66 in1004.4 mb 0.00 in0.0 mm 0.00 in0.0 mm 0.02 in0.5 mm
07:00 AM 43.5°F6.4°C 39.9°F4.4°C 87% 0.5 mph NNE0.8 kmh NNE 1.6 mph2.6 kmh 29.66 in1004.4 mb 0.00 in0.0 mm 0.00 in0.0 mm 0.02 in0.5 mm
07:05 AM 43.5°F6.4°C 39.9°F4.4°C 87% 1.9 mph NE3.1 kmh NE 3.1 mph5.0 kmh 29.66 in1004.4 mb 0.00 in0.0 mm 0.00 in0.0 mm 0.02 in0.5 mm
07:10 AM 43.5°F6.4°C 39.9°F4.4°C 87% 1.2 mph NE1.9 kmh NE 3.1 mph5.0 kmh 29.66 in1004.4 mb 0.00 in0.0 mm 0.00 in0.0 mm 0.02 in0.5 mm
07:15 AM 43.7°F6.5°C 40.1°F4.5°C 87% Calm Calm 0.7 mph1.1 kmh 29.66 in1004.4 mb 0.00 in0.0 mm 0.00 in0.0 mm 0.02 in0.5 mm
07:20 AM 43.7°F6.5°C 40.1°F4.5°C 87% 0.4 mph NNE0.6 kmh NNE 1.6 mph2.6 kmh 29.66 in1004.4 mb 0.00 in0.0 mm 0.00 in0.0 mm 0.02 in0.5 mm
07:25 AM 43.7°F6.5°C 40.3°F4.6°C 88% 0.7 mph N1.1 kmh N 1.6 mph2.6 kmh 29.66 in1004.4 mb 0.00 in0.0 mm 0.00 in0.0 mm 0.02 in0.5 mm
07:30 AM 43.8°F6.6°C 40.5°F4.7°C 88% Calm Calm 0.7 mph1.1 kmh 29.66 in1004.4 mb 0.00 in0.0 mm 0.00 in0.0 mm 0.02 in0.5 mm
07:35 AM 43.9°F6.6°C 40.6°F4.8°C 88% 1.3 mph N2.1 kmh N 2.2 mph3.5 kmh 29.66 in1004.4 mb 0.00 in0.0 mm 0.00 in0.0 mm 0.02 in0.5 mm
07:40 AM 43.9°F6.6°C 40.6°F4.8°C 88% 0.5 mph NE0.8 kmh NE 2.2 mph3.5 kmh 29.66 in1004.4 mb 0.00 in0.0 mm 0.00 in0.0 mm 0.02 in0.5 mm
07:45 AM 43.9°F6.6°C 40.6°F4.8°C 88% 1.4 mph NE2.3 kmh NE 2.2 mph3.5 kmh 29.66 in1004.4 mb 0.00 in0.0 mm 0.00 in0.0 mm 0.02 in0.5 mm
07:50 AM 44.1°F6.7°C 40.7°F4.8°C 88% 1.5 mph NNE2.4 kmh NNE 2.2 mph3.5 kmh 29.66 in1004.4 mb 0.00 in0.0 mm 0.00 in0.0 mm 0.02 in0.5 mm
07:55 AM 44.2°F6.8°C 40.9°F4.9°C 88% 0.7 mph NE1.1 kmh NE 2.2 mph3.5 kmh 29.66 in1004.4 mb 0.00 in0.0 mm 0.00 in0.0 mm 0.02 in0.5 mm
08:00 AM 44.2°F6.8°C 40.9°F4.9°C 88% 1.4 mph NNE2.3 kmh NNE 3.1 mph5.0 kmh 29.66 in1004.4 mb 0.00 in0.0 mm 0.00 in0.0 mm 0.02 in0.5 mm
08:05 AM 44.2°F6.8°C 41.2°F5.1°C 89% 0.7 mph S1.1 kmh S 0.7 mph1.1 kmh 29.66 in1004.4 mb 0.00 in0.0 mm 0.00 in0.0 mm 0.02 in0.5 mm
08:10 AM 44.3°F6.8°C 41.3°F5.2°C 89% 0.8 mph E1.3 kmh E 2.2 mph3.5 kmh 29.66 in1004.4 mb 0.00 in0.0 mm 0.00 in0.0 mm 0.02 in0.5 mm
08:15 AM 44.4°F6.9°C 41.4°F5.2°C 89% 1.6 mph NE2.6 kmh NE 3.1 mph5.0 kmh 29.66 in1004.4 mb 0.00 in0.0 mm 0.00 in0.0 mm 0.02 in0.5 mm
08:20 AM 44.5°F6.9°C 41.4°F5.2°C 89% 1.6 mph E2.6 kmh E 4.5 mph7.2 kmh 29.66 in1004.4 mb 0.00 in0.0 mm 0.00 in0.0 mm 0.02 in0.5 mm
08:25 AM 44.6°F7.0°C 41.6°F5.3°C 89% 1.4 mph S2.3 kmh S 3.1 mph5.0 kmh 29.66 in1004.4 mb 0.00 in0.0 mm 0.00 in0.0 mm 0.02 in0.5 mm
08:30 AM 44.9°F7.2°C 41.9°F5.5°C 89% 3.3 mph SE5.3 kmh SE 6.0 mph9.7 kmh 29.65 in1004.1 mb 0.00 in0.0 mm 0.00 in0.0 mm 0.02 in0.5 mm
08:35 AM 45.1°F7.3°C 42.4°F5.8°C 90% 1.1 mph NW1.8 kmh NW 2.2 mph3.5 kmh 29.65 in1004.1 mb 0.00 in0.0 mm 0.00 in0.0 mm 0.02 in0.5 mm
08:40 AM 45.4°F7.4°C 42.6°F5.9°C 90% 1.9 mph SE3.1 kmh SE 3.1 mph5.0 kmh 29.65 in1004.1 mb 0.00 in0.0 mm 0.00 in0.0 mm 0.02 in0.5 mm
08:45 AM 45.6°F7.6°C 42.8°F6.0°C 90% 1.7 mph SSE2.7 kmh SSE 5.4 mph8.7 kmh 29.65 in1004.1 mb 0.00 in0.0 mm 0.00 in0.0 mm 0.02 in0.5 mm
08:50 AM 45.9°F7.7°C 41.3°F5.2°C 84% 2.2 mph SSW3.5 kmh SSW 4.5 mph7.2 kmh 29.65 in1004.1 mb 0.00 in0.0 mm 0.00 in0.0 mm 0.02 in0.5 mm
08:55 AM 46.1°F7.8°C 41.8°F5.4°C 85% 1.3 mph SSW2.1 kmh SSW 3.1 mph5.0 kmh 29.65 in1004.1 mb 0.00 in0.0 mm 0.00 in0.0 mm 0.02 in0.5 mm
09:00 AM 46.2°F7.9°C 42.0°F5.6°C 85% 0.8 mph N1.3 kmh N 2.2 mph3.5 kmh 29.65 in1004.1 mb 0.00 in0.0 mm 0.00 in0.0 mm 0.02 in0.5 mm
09:05 AM 46.4°F8.0°C 42.1°F5.6°C 85% 0.6 mph WSW1.0 kmh WSW 1.6 mph2.6 kmh 29.65 in1004.1 mb 0.00 in0.0 mm 0.00 in0.0 mm 0.02 in0.5 mm
09:10 AM 46.5°F8.1°C 42.2°F5.7°C 85% 2.3 mph S3.7 kmh S 6.9 mph11.1 kmh 29.65 in1004.1 mb 0.00 in0.0 mm 0.00 in0.0 mm 0.02 in0.5 mm
09:15 AM 46.6°F8.1°C 42.3°F5.7°C 85% 4.3 mph S6.9 kmh S 6.9 mph11.1 kmh 29.65 in1004.1 mb 0.00 in0.0 mm 0.00 in0.0 mm 0.02 in0.5 mm
09:20 AM 46.6°F8.1°C 42.4°F5.8°C 85% 2.0 mph SE3.2 kmh SE 6.9 mph11.1 kmh 29.65 in1004.1 mb 0.00 in0.0 mm 0.00 in0.0 mm 0.02 in0.5 mm
09:25 AM 46.8°F8.2°C 42.5°F5.8°C 85% 2.1 mph SE3.4 kmh SE 5.4 mph8.7 kmh 29.65 in1004.1 mb 0.00 in0.0 mm 0.00 in0.0 mm 0.02 in0.5 mm
09:30 AM 46.9°F8.3°C 42.7°F5.9°C 85% 2.1 mph S3.4 kmh S 4.5 mph7.2 kmh 29.65 in1004.1 mb 0.00 in0.0 mm 0.00 in0.0 mm 0.02 in0.5 mm
09:35 AM 47.0°F8.3°C 42.7°F5.9°C 85% 3.2 mph S5.1 kmh S 5.4 mph8.7 kmh 29.65 in1004.1 mb 0.00 in0.0 mm 0.00 in0.0 mm 0.02 in0.5 mm
09:40 AM 47.1°F8.4°C 42.8°F6.0°C 85% 8.1 mph S13.0 kmh S 13.0 mph20.9 kmh 29.66 in1004.4 mb 0.00 in0.0 mm 0.00 in0.0 mm 0.02 in0.5 mm
09:45 AM 47.1°F8.4°C 42.8°F6.0°C 85% 9.9 mph SSW15.9 kmh SSW 15.2 mph24.5 kmh 29.66 in1004.4 mb 0.00 in0.0 mm 0.00 in0.0 mm 0.02 in0.5 mm
09:50 AM 47.1°F8.4°C 42.8°F6.0°C 85% 7.5 mph S12.1 kmh S 12.1 mph19.5 kmh 29.66 in1004.4 mb 0.00 in0.0 mm 0.00 in0.0 mm 0.02 in0.5 mm
09:55 AM 47.1°F8.4°C 42.8°F6.0°C 85% 8.6 mph SSE13.8 kmh SSE 14.5 mph23.3 kmh 29.66 in1004.4 mb 0.00 in0.0 mm 0.00 in0.0 mm 0.02 in0.5 mm
10:00 AM 46.9°F8.3°C 42.4°F5.8°C 84% 8.9 mph SE14.3 kmh SE 14.5 mph23.3 kmh 29.66 in1004.4 mb 0.00 in0.0 mm 0.00 in0.0 mm 0.02 in0.5 mm
10:05 AM 46.9°F8.3°C 42.4°F5.8°C 84% 8.3 mph SE13.4 kmh SE 10.7 mph17.2 kmh 29.66 in1004.4 mb 0.00 in0.0 mm 0.00 in0.0 mm 0.02 in0.5 mm
10:10 AM 46.9°F8.3°C 42.3°F5.7°C 84% 7.1 mph SSE11.4 kmh SSE 10.7 mph17.2 kmh 29.65 in1004.1 mb 0.00 in0.0 mm 0.00 in0.0 mm 0.02 in0.5 mm
10:15 AM 46.8°F8.2°C 42.2°F5.7°C 84% 7.7 mph S12.4 kmh S 11.4 mph18.3 kmh 29.66 in1004.4 mb 0.00 in0.0 mm 0.00 in0.0 mm 0.02 in0.5 mm
10:20 AM 46.8°F8.2°C 42.2°F5.7°C 84% 9.9 mph SSE15.9 kmh SSE 14.5 mph23.3 kmh 29.66 in1004.4 mb 0.00 in0.0 mm 0.00 in0.0 mm 0.02 in0.5 mm
10:25 AM 46.9°F8.3°C 42.3°F5.7°C 84% 6.6 mph S10.6 kmh S 9.2 mph14.8 kmh 29.65 in1004.1 mb 0.00 in0.0 mm 0.00 in0.0 mm 0.02 in0.5 mm
10:30 AM 46.9°F8.3°C 42.4°F5.8°C 84% 5.7 mph SE9.2 kmh SE 8.3 mph13.4 kmh 29.66 in1004.4 mb 0.00 in0.0 mm 0.00 in0.0 mm 0.02 in0.5 mm
10:35 AM 46.9°F8.3°C 42.4°F5.8°C 84% 4.7 mph ESE7.6 kmh ESE 6.9 mph11.1 kmh 29.65 in1004.1 mb 0.00 in0.0 mm 0.00 in0.0 mm 0.02 in0.5 mm
10:40 AM 46.9°F8.3°C 42.4°F5.8°C 84% 3.8 mph ESE6.1 kmh ESE 6.9 mph11.1 kmh 29.65 in1004.1 mb 0.00 in0.0 mm 0.00 in0.0 mm 0.02 in0.5 mm
10:45 AM 46.9°F8.3°C 42.4°F5.8°C 84% 4.1 mph ESE6.6 kmh ESE 8.3 mph13.4 kmh 29.65 in1004.1 mb 0.00 in0.0 mm 0.00 in0.0 mm 0.02 in0.5 mm
10:50 AM 46.9°F8.3°C 42.4°F5.8°C 84% 5.3 mph S8.5 kmh S 9.8 mph15.8 kmh 29.65 in1004.1 mb 0.00 in0.0 mm 0.00 in0.0 mm 0.02 in0.5 mm
10:55 AM 46.9°F8.3°C 42.4°F5.8°C 84% 5.1 mph SE8.2 kmh SE 9.2 mph14.8 kmh 29.64 in1003.7 mb 0.00 in0.0 mm 0.00 in0.0 mm 0.02 in0.5 mm
11:00 AM 46.9°F8.3°C 42.1°F5.6°C 83% 4.8 mph S7.7 kmh S 9.8 mph15.8 kmh 29.64 in1003.7 mb 0.00 in0.0 mm 0.00 in0.0 mm 0.02 in0.5 mm
11:05 AM 46.9°F8.3°C 42.1°F5.6°C 83% 6.6 mph SSE10.6 kmh SSE 9.8 mph15.8 kmh 29.64 in1003.7 mb 0.00 in0.0 mm 0.00 in0.0 mm 0.02 in0.5 mm
11:10 AM 46.9°F8.3°C 42.1°F5.6°C 83% 7.6 mph SSE12.2 kmh SSE 13.6 mph21.9 kmh 29.64 in1003.7 mb 0.00 in0.0 mm 0.00 in0.0 mm 0.02 in0.5 mm
11:15 AM 46.9°F8.3°C 42.1°F5.6°C 83% 2.9 mph S4.7 kmh S 8.3 mph13.4 kmh 29.64 in1003.7 mb 0.00 in0.0 mm 0.00 in0.0 mm 0.02 in0.5 mm
11:20 AM 46.9°F8.3°C 42.1°F5.6°C 83% 5.3 mph SSE8.5 kmh SSE 8.3 mph13.4 kmh 29.64 in1003.7 mb 0.00 in0.0 mm 0.00 in0.0 mm 0.02 in0.5 mm
11:25 AM 46.9°F8.3°C 42.0°F5.6°C 83% 6.4 mph SSE10.3 kmh SSE 9.2 mph14.8 kmh 29.64 in1003.7 mb 0.00 in0.0 mm 0.00 in0.0 mm 0.02 in0.5 mm
11:30 AM 46.8°F8.2°C 41.9°F5.5°C 83% 4.9 mph S7.9 kmh S 6.9 mph11.1 kmh 29.64 in1003.7 mb 0.00 in0.0 mm 0.00 in0.0 mm 0.02 in0.5 mm
11:35 AM 46.8°F8.2°C 41.9°F5.5°C 83% 4.2 mph SE6.8 kmh SE 6.0 mph9.7 kmh 29.64 in1003.7 mb 0.00 in0.0 mm 0.00 in0.0 mm 0.02 in0.5 mm
11:40 AM 46.6°F8.1°C 41.7°F5.4°C 83% 5.3 mph S8.5 kmh S 10.7 mph17.2 kmh 29.64 in1003.7 mb 0.00 in0.0 mm 0.00 in0.0 mm 0.02 in0.5 mm
11:45 AM 46.6°F8.1°C 41.7°F5.4°C 83% 5.4 mph S8.7 kmh S 8.3 mph13.4 kmh 29.63 in1003.4 mb 0.00 in0.0 mm 0.00 in0.0 mm 0.03 in0.8 mm
11:50 AM 46.6°F8.1°C 41.7°F5.4°C 83% 4.3 mph SSE6.9 kmh SSE 6.0 mph9.7 kmh 29.64 in1003.7 mb 0.01 in0.3 mm 0.12 in3.0 mm 0.03 in0.8 mm
11:55 AM 46.6°F8.1°C 41.7°F5.4°C 83% 4.3 mph S6.9 kmh S 6.9 mph11.1 kmh 29.63 in1003.4 mb 0.01 in0.3 mm 0.00 in0.0 mm 0.04 in1.0 mm
12:00 PM 46.5°F8.1°C 41.6°F5.3°C 83% 3.9 mph SSW6.3 kmh SSW 6.0 mph9.7 kmh 29.63 in1003.4 mb 0.01 in0.3 mm 0.00 in0.0 mm 0.04 in1.0 mm
12:05 PM 46.4°F8.0°C 41.5°F5.3°C 83% 3.1 mph S5.0 kmh S 5.4 mph8.7 kmh 29.63 in1003.4 mb 0.02 in0.5 mm 0.12 in3.0 mm 0.04 in1.0 mm
12:10 PM 46.4°F8.0°C 41.5°F5.3°C 83% 3.8 mph S6.1 kmh S 6.9 mph11.1 kmh 29.63 in1003.4 mb 0.02 in0.5 mm 0.00 in0.0 mm 0.04 in1.0 mm
12:15 PM 46.4°F8.0°C 41.5°F5.3°C 83% 3.7 mph S6.0 kmh S 6.9 mph11.1 kmh 29.63 in1003.4 mb 0.02 in0.5 mm 0.00 in0.0 mm 0.04 in1.0 mm
12:20 PM 46.4°F8.0°C 41.5°F5.3°C 83% 4.5 mph S7.2 kmh S 7.6 mph12.2 kmh 29.63 in1003.4 mb 0.02 in0.5 mm 0.00 in0.0 mm 0.04 in1.0 mm
12:25 PM 46.3°F7.9°C 41.4°F5.2°C 83% 6.1 mph S9.8 kmh S 9.2 mph14.8 kmh 29.63 in1003.4 mb 0.02 in0.5 mm 0.00 in0.0 mm 0.04 in1.0 mm
12:30 PM 46.2°F7.9°C 41.3°F5.2°C 83% 6.9 mph S11.1 kmh S 11.4 mph18.3 kmh 29.63 in1003.4 mb 0.02 in0.5 mm 0.00 in0.0 mm 0.04 in1.0 mm
12:35 PM 46.2°F7.9°C 41.6°F5.3°C 84% 4.0 mph S6.4 kmh S 7.6 mph12.2 kmh 29.62 in1003.0 mb 0.02 in0.5 mm 0.00 in0.0 mm 0.04 in1.0 mm
12:40 PM 46.2°F7.9°C 41.7°F5.4°C 84% 4.1 mph SE6.6 kmh SE 7.6 mph12.2 kmh 29.62 in1003.0 mb 0.02 in0.5 mm 0.00 in0.0 mm 0.04 in1.0 mm
12:45 PM 46.2°F7.9°C 41.7°F5.4°C 84% 3.5 mph S5.6 kmh S 6.0 mph9.7 kmh 29.62 in1003.0 mb 0.02 in0.5 mm 0.00 in0.0 mm 0.04 in1.0 mm
12:50 PM 46.2°F7.9°C 41.7°F5.4°C 84% 3.9 mph SSE6.3 kmh SSE 7.6 mph12.2 kmh 29.62 in1003.0 mb 0.01 in0.3 mm 0.00 in0.0 mm 0.04 in1.0 mm
12:55 PM 46.3°F7.9°C 41.8°F5.4°C 84% 4.6 mph S7.4 kmh S 8.3 mph13.4 kmh 29.62 in1003.0 mb 0.01 in0.3 mm 0.00 in0.0 mm 0.04 in1.0 mm
01:00 PM 46.4°F8.0°C 41.8°F5.4°C 84% 5.0 mph S8.0 kmh S 9.2 mph14.8 kmh 29.62 in1003.0 mb 0.01 in0.3 mm 0.00 in0.0 mm 0.04 in1.0 mm
01:05 PM 46.4°F8.0°C 41.8°F5.4°C 84% 4.5 mph SW7.2 kmh SW 6.9 mph11.1 kmh 29.61 in1002.7 mb 0.00 in0.0 mm 0.00 in0.0 mm 0.04 in1.0 mm
01:10 PM 46.4°F8.0°C 41.8°F5.4°C 84% 3.6 mph SW5.8 kmh SW 5.4 mph8.7 kmh 29.61 in1002.7 mb 0.00 in0.0 mm 0.00 in0.0 mm 0.04 in1.0 mm
01:15 PM 46.4°F8.0°C 41.9°F5.5°C 84% 2.9 mph SW4.7 kmh SW 7.6 mph12.2 kmh 29.61 in1002.7 mb 0.00 in0.0 mm 0.00 in0.0 mm 0.04 in1.0 mm
01:20 PM 46.6°F8.1°C 42.0°F5.6°C 84% 5.1 mph S8.2 kmh S 8.3 mph13.4 kmh 29.61 in1002.7 mb 0.00 in0.0 mm 0.00 in0.0 mm 0.04 in1.0 mm
01:25 PM 46.6°F8.1°C 42.0°F5.6°C 84% 4.5 mph SSW7.2 kmh SSW 7.6 mph12.2 kmh 29.61 in1002.7 mb 0.00 in0.0 mm 0.00 in0.0 mm 0.04 in1.0 mm
01:30 PM 46.6°F8.1°C 42.0°F5.6°C 84% 4.4 mph SSE7.1 kmh SSE 10.7 mph17.2 kmh 29.61 in1002.7 mb 0.00 in0.0 mm 0.00 in0.0 mm 0.04 in1.0 mm
01:35 PM 46.6°F8.1°C 42.0°F5.6°C 84% 7.3 mph SE11.7 kmh SE 10.7 mph17.2 kmh 29.61 in1002.7 mb 0.00 in0.0 mm 0.00 in0.0 mm 0.04 in1.0 mm
01:40 PM 46.8°F8.2°C 42.2°F5.7°C 84% 6.8 mph SSE10.9 kmh SSE 9.8 mph15.8 kmh 29.61 in1002.7 mb 0.00 in0.0 mm 0.00 in0.0 mm 0.05 in1.3 mm
01:45 PM 46.8°F8.2°C 42.2°F5.7°C 84% 4.3 mph SSE6.9 kmh SSE 6.9 mph11.1 kmh 29.61 in1002.7 mb 0.00 in0.0 mm 0.00 in0.0 mm 0.05 in1.3 mm
01:50 PM 46.8°F8.2°C 42.2°F5.7°C 84% 4.9 mph S7.9 kmh S 9.2 mph14.8 kmh 29.60 in1002.4 mb 0.00 in0.0 mm 0.00 in0.0 mm 0.05 in1.3 mm
01:55 PM 46.8°F8.2°C 42.2°F5.7°C 84% 5.2 mph S8.4 kmh S 7.6 mph12.2 kmh 29.60 in1002.4 mb 0.00 in0.0 mm 0.00 in0.0 mm 0.05 in1.3 mm
02:00 PM 46.8°F8.2°C 42.2°F5.7°C 84% 4.8 mph SE7.7 kmh SE 7.6 mph12.2 kmh 29.60 in1002.4 mb 0.00 in0.0 mm 0.00 in0.0 mm 0.05 in1.3 mm
02:05 PM 46.8°F8.2°C 42.2°F5.7°C 84% 6.0 mph S9.7 kmh S 9.2 mph14.8 kmh 29.60 in1002.4 mb 0.00 in0.0 mm 0.00 in0.0 mm 0.05 in1.3 mm
02:10 PM 46.8°F8.2°C 42.2°F5.7°C 84% 4.6 mph S7.4 kmh S 9.2 mph14.8 kmh 29.59 in1002.0 mb 0.00 in0.0 mm 0.00 in0.0 mm 0.05 in1.3 mm
02:15 PM 46.9°F8.3°C 42.4°F5.8°C 84% 4.9 mph S7.9 kmh S 7.6 mph12.2 kmh 29.59 in1002.0 mb 0.00 in0.0 mm 0.00 in0.0 mm 0.05 in1.3 mm
02:20 PM 46.9°F8.3°C 42.4°F5.8°C 84% 6.3 mph S10.1 kmh S 9.8 mph15.8 kmh 29.59 in1002.0 mb 0.00 in0.0 mm 0.00 in0.0 mm 0.05 in1.3 mm
02:25 PM 46.9°F8.3°C 42.4°F5.8°C 84% 2.8 mph S4.5 kmh S 5.4 mph8.7 kmh 29.59 in1002.0 mb 0.00 in0.0 mm 0.00 in0.0 mm 0.05 in1.3 mm
02:30 PM 46.9°F8.3°C 42.2°F5.7°C 83% 4.4 mph SW7.1 kmh SW 6.0 mph9.7 kmh 29.59 in1002.0 mb 0.00 in0.0 mm 0.00 in0.0 mm 0.05 in1.3 mm
02:35 PM 46.9°F8.3°C 42.1°F5.6°C 83% 4.2 mph S6.8 kmh S 7.6 mph12.2 kmh 29.59 in1002.0 mb 0.00 in0.0 mm 0.00 in0.0 mm 0.05 in1.3 mm
02:40 PM 46.9°F8.3°C 42.1°F5.6°C 83% 2.1 mph SE3.4 kmh SE 9.2 mph14.8 kmh 29.58 in1001.7 mb 0.00 in0.0 mm 0.00 in0.0 mm 0.05 in1.3 mm
02:45 PM 46.9°F8.3°C 42.1°F5.6°C 83% 6.0 mph S9.7 kmh S 9.2 mph14.8 kmh 29.59 in1002.0 mb 0.00 in0.0 mm 0.00 in0.0 mm 0.05 in1.3 mm
02:50 PM 46.9°F8.3°C 42.1°F5.6°C 83% 4.8 mph S7.7 kmh S 7.6 mph12.2 kmh 29.58 in1001.7 mb 0.00 in0.0 mm 0.00 in0.0 mm 0.05 in1.3 mm
02:55 PM 47.0°F8.3°C 42.1°F5.6°C 83% 3.6 mph S5.8 kmh S 7.6 mph12.2 kmh 29.59 in1002.0 mb 0.00 in0.0 mm 0.00 in0.0 mm 0.05 in1.3 mm
03:00 PM 47.1°F8.4°C 42.2°F5.7°C 83% 3.8 mph SE6.1 kmh SE 6.0 mph9.7 kmh 29.58 in1001.7 mb 0.01 in0.3 mm 0.01 in0.3 mm 0.06 in1.5 mm
03:05 PM 47.1°F8.4°C 42.2°F5.7°C 83% 5.0 mph S8.0 kmh S 7.6 mph12.2 kmh 29.58 in1001.7 mb 0.01 in0.3 mm 0.00 in0.0 mm 0.06 in1.5 mm
03:10 PM 47.1°F8.4°C 42.2°F5.7°C 83% 4.4 mph SE7.1 kmh SE 7.6 mph12.2 kmh 29.58 in1001.7 mb 0.01 in0.3 mm 0.00 in0.0 mm 0.06 in1.5 mm
03:15 PM 47.1°F8.4°C 42.2°F5.7°C 83% 3.0 mph SSE4.8 kmh SSE 6.0 mph9.7 kmh 29.58 in1001.7 mb 0.02 in0.5 mm 0.12 in3.0 mm 0.06 in1.5 mm
03:20 PM 47.1°F8.4°C 42.2°F5.7°C 83% 2.2 mph S3.5 kmh S 3.8 mph6.1 kmh 29.58 in1001.7 mb 0.02 in0.5 mm 0.00 in0.0 mm 0.07 in1.8 mm
03:25 PM 47.1°F8.4°C 42.2°F5.7°C 83% 4.1 mph S6.6 kmh S 6.9 mph11.1 kmh 29.58 in1001.7 mb 0.02 in0.5 mm 0.00 in0.0 mm 0.07 in1.8 mm
03:30 PM 47.1°F8.4°C 42.2°F5.7°C 83% 5.1 mph S8.2 kmh S 9.2 mph14.8 kmh 29.58 in1001.7 mb 0.02 in0.5 mm 0.00 in0.0 mm 0.07 in1.8 mm
03:35 PM 47.1°F8.4°C 42.2°F5.7°C 83% 5.6 mph SSE9.0 kmh SSE 13.0 mph20.9 kmh 29.58 in1001.7 mb 0.02 in0.5 mm 0.00 in0.0 mm 0.07 in1.8 mm
03:40 PM 47.1°F8.4°C 42.2°F5.7°C 83% 7.3 mph SSE11.7 kmh SSE 11.4 mph18.3 kmh 29.58 in1001.7 mb 0.02 in0.5 mm 0.00 in0.0 mm 0.07 in1.8 mm
03:45 PM 47.0°F8.3°C 42.1°F5.6°C 83% 6.0 mph S9.7 kmh S 10.7 mph17.2 kmh 29.58 in1001.7 mb 0.02 in0.5 mm 0.00 in0.0 mm 0.07 in1.8 mm
03:50 PM 46.9°F8.3°C 42.1°F5.6°C 83% 6.7 mph SSE10.8 kmh SSE 13.0 mph20.9 kmh 29.58 in1001.7 mb 0.02 in0.5 mm 0.00 in0.0 mm 0.07 in1.8 mm
03:55 PM 46.9°F8.3°C 42.2°F5.7°C 83% 6.8 mph S10.9 kmh S 10.7 mph17.2 kmh 29.58 in1001.7 mb 0.02 in0.5 mm 0.00 in0.0 mm 0.07 in1.8 mm
04:00 PM 46.9°F8.3°C 42.3°F5.7°C 84% 8.9 mph S14.3 kmh S 13.6 mph21.9 kmh 29.58 in1001.7 mb 0.02 in0.5 mm 0.00 in0.0 mm 0.07 in1.8 mm
04:05 PM 46.8°F8.2°C 42.2°F5.7°C 84% 5.4 mph S8.7 kmh S 6.0 mph9.7 kmh 29.58 in1001.7 mb 0.01 in0.3 mm 0.00 in0.0 mm 0.07 in1.8 mm
04:10 PM 46.8°F8.2°C 42.2°F5.7°C 84% 4.6 mph SSW7.4 kmh SSW 6.9 mph11.1 kmh 29.58 in1001.7 mb 0.01 in0.3 mm 0.00 in0.0 mm 0.07 in1.8 mm
04:15 PM 46.8°F8.2°C 42.2°F5.7°C 84% 4.9 mph S7.9 kmh S 8.3 mph13.4 kmh 29.58 in1001.7 mb 0.01 in0.3 mm 0.00 in0.0 mm 0.07 in1.8 mm
04:20 PM 46.8°F8.2°C 42.2°F5.7°C 84% 4.4 mph SSW7.1 kmh SSW 7.6 mph12.2 kmh 29.57 in1001.4 mb 0.01 in0.3 mm 0.00 in0.0 mm 0.07 in1.8 mm
04:25 PM 46.8°F8.2°C 42.2°F5.7°C 84% 4.9 mph S7.9 kmh S 8.3 mph13.4 kmh 29.58 in1001.7 mb 0.02 in0.5 mm 0.12 in3.0 mm 0.08 in2.0 mm
04:30 PM 46.8°F8.2°C 42.2°F5.7°C 84% 3.2 mph SSW5.1 kmh SSW 6.0 mph9.7 kmh 29.58 in1001.7 mb 0.03 in0.8 mm 0.12 in3.0 mm 0.09 in2.3 mm
04:35 PM 46.8°F8.2°C 42.2°F5.7°C 84% 4.3 mph SSW6.9 kmh SSW 6.9 mph11.1 kmh 29.57 in1001.4 mb 0.03 in0.8 mm 0.00 in0.0 mm 0.10 in2.5 mm
04:40 PM 46.8°F8.2°C 42.2°F5.7°C 84% 2.9 mph SSE4.7 kmh SSE 5.4 mph8.7 kmh 29.57 in1001.4 mb 0.04 in1.0 mm 0.12 in3.0 mm 0.11 in2.8 mm
04:45 PM 46.8°F8.2°C 42.2°F5.7°C 84% 3.7 mph SSW6.0 kmh SSW 6.0 mph9.7 kmh 29.57 in1001.4 mb 0.05 in1.3 mm 0.12 in3.0 mm 0.11 in2.8 mm
04:50 PM 46.8°F8.2°C 42.2°F5.7°C 84% 3.1 mph S5.0 kmh S 6.9 mph11.1 kmh 29.57 in1001.4 mb 0.05 in1.3 mm 0.00 in0.0 mm 0.12 in3.0 mm
04:55 PM 46.9°F8.3°C 42.3°F5.7°C 84% 3.0 mph SW4.8 kmh SW 5.4 mph8.7 kmh 29.57 in1001.4 mb 0.06 in1.5 mm 0.12 in3.0 mm 0.12 in3.0 mm
05:00 PM 46.9°F8.3°C 42.4°F5.8°C 84% 3.7 mph S6.0 kmh S 6.9 mph11.1 kmh 29.57 in1001.4 mb 0.06 in1.5 mm 0.00 in0.0 mm 0.13 in3.3 mm
05:05 PM 46.9°F8.3°C 42.4°F5.8°C 84% 2.2 mph SSW3.5 kmh SSW 3.8 mph6.1 kmh 29.57 in1001.4 mb 0.06 in1.5 mm 0.00 in0.0 mm 0.13 in3.3 mm
05:10 PM 46.9°F8.3°C 42.4°F5.8°C 84% 1.9 mph SW3.1 kmh SW 3.1 mph5.0 kmh 29.57 in1001.4 mb 0.07 in1.8 mm 0.12 in3.0 mm 0.14 in3.6 mm
05:15 PM 46.9°F8.3°C 42.4°F5.8°C 84% 1.9 mph WSW3.1 kmh WSW 3.1 mph5.0 kmh 29.57 in1001.4 mb 0.07 in1.8 mm 0.00 in0.0 mm 0.14 in3.6 mm
05:20 PM 46.9°F8.3°C 42.4°F5.8°C 84% 3.7 mph SW6.0 kmh SW 6.0 mph9.7 kmh 29.57 in1001.4 mb 0.07 in1.8 mm 0.00 in0.0 mm 0.14 in3.6 mm
05:25 PM 46.9°F8.3°C 42.4°F5.8°C 84% 3.3 mph SW5.3 kmh SW 4.5 mph7.2 kmh 29.58 in1001.7 mb 0.06 in1.5 mm 0.00 in0.0 mm 0.14 in3.6 mm
05:30 PM 46.9°F8.3°C 42.4°F5.8°C 84% 3.4 mph SW5.5 kmh SW 4.5 mph7.2 kmh 29.57 in1001.4 mb 0.06 in1.5 mm 0.00 in0.0 mm 0.15 in3.8 mm
05:35 PM 46.9°F8.3°C 42.4°F5.8°C 84% 2.8 mph SW4.5 kmh SW 5.4 mph8.7 kmh 29.57 in1001.4 mb 0.07 in1.8 mm 0.12 in3.0 mm 0.17 in4.3 mm
05:40 PM 46.9°F8.3°C 42.4°F5.8°C 84% 3.0 mph SW4.8 kmh SW 4.5 mph7.2 kmh 29.57 in1001.4 mb 0.06 in1.5 mm 0.00 in0.0 mm 0.17 in4.3 mm
05:45 PM 46.9°F8.3°C 42.4°F5.8°C 84% 2.0 mph WSW3.2 kmh WSW 3.1 mph5.0 kmh 29.58 in1001.7 mb 0.07 in1.8 mm 0.12 in3.0 mm 0.19 in4.8 mm
05:50 PM 46.9°F8.3°C 42.4°F5.8°C 84% 3.1 mph SW5.0 kmh SW 6.0 mph9.7 kmh 29.58 in1001.7 mb 0.08 in2.0 mm 0.12 in3.0 mm 0.20 in5.1 mm
05:55 PM 46.9°F8.3°C 42.4°F5.8°C 84% 3.9 mph SW6.3 kmh SW 5.4 mph8.7 kmh 29.58 in1001.7 mb 0.09 in2.3 mm 0.12 in3.0 mm 0.21 in5.3 mm
06:00 PM 46.9°F8.3°C 42.3°F5.7°C 84% 2.5 mph SW4.0 kmh SW 3.8 mph6.1 kmh 29.58 in1001.7 mb 0.10 in2.5 mm 0.01 in0.3 mm 0.22 in5.6 mm
06:05 PM 46.8°F8.2°C 42.2°F5.7°C 84% 1.6 mph SW2.6 kmh SW 3.1 mph5.0 kmh 29.58 in1001.7 mb 0.09 in2.3 mm 0.00 in0.0 mm 0.22 in5.6 mm
06:10 PM 46.8°F8.2°C 42.2°F5.7°C 84% 2.5 mph SW4.0 kmh SW 4.5 mph7.2 kmh 29.58 in1001.7 mb 0.10 in2.5 mm 0.12 in3.0 mm 0.24 in6.1 mm
06:15 PM 46.8°F8.2°C 42.2°F5.7°C 84% 2.6 mph WSW4.2 kmh WSW 4.5 mph7.2 kmh 29.58 in1001.7 mb 0.10 in2.5 mm 0.00 in0.0 mm 0.24 in6.1 mm
06:20 PM 46.8°F8.2°C 42.2°F5.7°C 84% 1.5 mph W2.4 kmh W 3.1 mph5.0 kmh 29.57 in1001.4 mb 0.11 in2.8 mm 0.12 in3.0 mm 0.25 in6.4 mm
06:25 PM 46.7°F8.2°C 42.1°F5.6°C 84% Calm Calm 0.7 mph1.1 kmh 29.57 in1001.4 mb 0.12 in3.0 mm 0.12 in3.0 mm 0.26 in6.6 mm
06:30 PM 46.6°F8.1°C 42.0°F5.6°C 84% Calm Calm -- 29.58 in1001.7 mb 0.11 in2.8 mm 0.00 in0.0 mm 0.27 in6.9 mm
06:35 PM 46.6°F8.1°C 42.0°F5.6°C 84% Calm Calm 0.7 mph1.1 kmh 29.57 in1001.4 mb 0.11 in2.8 mm 0.00 in0.0 mm 0.28 in7.1 mm
06:40 PM 46.6°F8.1°C 42.0°F5.6°C 84% 0.8 mph SSW1.3 kmh SSW 1.6 mph2.6 kmh 29.57 in1001.4 mb 0.11 in2.8 mm 0.00 in0.0 mm 0.28 in7.1 mm
06:45 PM 46.6°F8.1°C 42.0°F5.6°C 84% 0.6 mph SSW1.0 kmh SSW 1.6 mph2.6 kmh 29.57 in1001.4 mb 0.10 in2.5 mm 0.00 in0.0 mm 0.29 in7.4 mm
06:50 PM 46.6°F8.1°C 42.0°F5.6°C 84% 1.0 mph SSW1.6 kmh SSW 2.2 mph3.5 kmh 29.57 in1001.4 mb 0.09 in2.3 mm 0.00 in0.0 mm 0.29 in7.4 mm
06:55 PM 46.6°F8.1°C 42.0°F5.6°C 84% 0.4 mph W0.6 kmh W 1.6 mph2.6 kmh 29.57 in1001.4 mb 0.08 in2.0 mm 0.00 in0.0 mm 0.30 in7.6 mm
07:00 PM 46.4°F8.0°C 41.9°F5.5°C 84% 0.7 mph WSW1.1 kmh WSW 1.6 mph2.6 kmh 29.57 in1001.4 mb 0.07 in1.8 mm 0.00 in0.0 mm 0.30 in7.6 mm
07:05 PM 46.4°F8.0°C 42.1°F5.6°C 85% 0.4 mph SW0.6 kmh SW 1.6 mph2.6 kmh 29.57 in1001.4 mb 0.07 in1.8 mm 0.00 in0.0 mm 0.30 in7.6 mm
07:10 PM 46.4°F8.0°C 42.1°F5.6°C 85% 0.6 mph W1.0 kmh W 1.6 mph2.6 kmh 29.57 in1001.4 mb 0.07 in1.8 mm 0.00 in0.0 mm 0.30 in7.6 mm
07:15 PM 46.4°F8.0°C 42.1°F5.6°C 85% Calm Calm 0.7 mph1.1 kmh 29.57 in1001.4 mb 0.07 in1.8 mm 0.00 in0.0 mm 0.31 in7.9 mm
07:20 PM 46.4°F8.0°C 42.1°F5.6°C 85% Calm Calm 0.7 mph1.1 kmh 29.57 in1001.4 mb 0.06 in1.5 mm 0.00 in0.0 mm 0.31 in7.9 mm
07:25 PM 46.3°F7.9°C 42.1°F5.6°C 85% 0.7 mph NE1.1 kmh NE 2.2 mph3.5 kmh 29.57 in1001.4 mb 0.05 in1.3 mm 0.00 in0.0 mm 0.31 in7.9 mm
07:30 PM 46.2°F7.9°C 41.8°F5.4°C 84% 1.6 mph NE2.6 kmh NE 2.2 mph3.5 kmh 29.57 in1001.4 mb 0.05 in1.3 mm 0.00 in0.0 mm 0.31 in7.9 mm
07:35 PM 46.1°F7.8°C 41.5°F5.3°C 84% 1.5 mph 2.4 kmh 2.2 mph3.5 kmh 29.57 in1001.4 mb 0.04 in1.0 mm 0.00 in0.0 mm 0.32 in8.1 mm
07:40 PM 46.0°F7.8°C 41.5°F5.3°C 84% 1.2 mph N1.9 kmh N 2.2 mph3.5 kmh 29.57 in1001.4 mb 0.04 in1.0 mm 0.00 in0.0 mm 0.32 in8.1 mm
07:45 PM 46.0°F7.8°C 41.5°F5.3°C 84% 1.2 mph N1.9 kmh N 2.2 mph3.5 kmh 29.57 in1001.4 mb 0.04 in1.0 mm 0.00 in0.0 mm 0.33 in8.4 mm
07:50 PM 46.0°F7.8°C 41.5°F5.3°C 84% 0.8 mph N1.3 kmh N 1.6 mph2.6 kmh 29.57 in1001.4 mb 0.04 in1.0 mm 0.00 in0.0 mm 0.33 in8.4 mm
07:55 PM 45.9°F7.7°C 41.3°F5.2°C 84% Calm Calm 0.7 mph1.1 kmh 29.57 in1001.4 mb 0.04 in1.0 mm 0.00 in0.0 mm 0.33 in8.4 mm
08:00 PM 45.9°F7.7°C 41.3°F5.2°C 84% 0.3 mph WNW0.5 kmh WNW 1.6 mph2.6 kmh 29.56 in1001.0 mb 0.04 in1.0 mm 0.00 in0.0 mm 0.34 in8.6 mm
08:05 PM 45.9°F7.7°C 41.3°F5.2°C 84% 0.7 mph NW1.1 kmh NW 1.6 mph2.6 kmh 29.56 in1001.0 mb 0.04 in1.0 mm 0.00 in0.0 mm 0.34 in8.6 mm
08:10 PM 45.9°F7.7°C 41.3°F5.2°C 84% 0.9 mph ENE1.4 kmh ENE 2.2 mph3.5 kmh 29.55 in1000.7 mb 0.04 in1.0 mm 0.00 in0.0 mm 0.34 in8.6 mm
08:15 PM 45.8°F7.7°C 42.0°F5.6°C 87% 0.2 mph SW0.3 kmh SW 1.6 mph2.6 kmh 29.55 in1000.7 mb 0.03 in0.8 mm 0.00 in0.0 mm 0.34 in8.6 mm
08:20 PM 45.9°F7.7°C 41.3°F5.2°C 84% 1.4 mph SSE2.3 kmh SSE 3.1 mph5.0 kmh 29.55 in1000.7 mb 0.03 in0.8 mm 0.00 in0.0 mm 0.34 in8.6 mm
08:25 PM 45.9°F7.7°C 41.6°F5.3°C 85% 0.7 mph WNW1.1 kmh WNW 1.6 mph2.6 kmh 29.55 in1000.7 mb 0.03 in0.8 mm 0.00 in0.0 mm 0.34 in8.6 mm
08:30 PM 45.9°F7.7°C 41.7°F5.4°C 85% 3.0 mph WNW4.8 kmh WNW 6.9 mph11.1 kmh 29.56 in1001.0 mb 0.03 in0.8 mm 0.00 in0.0 mm 0.34 in8.6 mm
08:35 PM 46.0°F7.8°C 41.7°F5.4°C 85% 5.1 mph NW8.2 kmh NW 6.9 mph11.1 kmh 29.56 in1001.0 mb 0.02 in0.5 mm 0.00 in0.0 mm 0.34 in8.6 mm
08:40 PM 45.9°F7.7°C 41.6°F5.3°C 85% 4.4 mph NW7.1 kmh NW 6.0 mph9.7 kmh 29.56 in1001.0 mb 0.02 in0.5 mm 0.00 in0.0 mm 0.34 in8.6 mm
08:45 PM 45.9°F7.7°C 41.6°F5.3°C 85% 2.0 mph WNW3.2 kmh WNW 3.8 mph6.1 kmh 29.56 in1001.0 mb 0.01 in0.3 mm 0.00 in0.0 mm 0.34 in8.6 mm
08:50 PM 45.7°F7.6°C 42.8°F6.0°C 89% 0.6 mph ENE1.0 kmh ENE 1.6 mph2.6 kmh 29.56 in1001.0 mb 0.01 in0.3 mm 0.00 in0.0 mm 0.34 in8.6 mm
08:55 PM 45.7°F7.6°C 42.9°F6.1°C 90% Calm Calm 0.7 mph1.1 kmh 29.57 in1001.4 mb 0.01 in0.3 mm 0.00 in0.0 mm 0.34 in8.6 mm
09:00 PM 45.5°F7.5°C 42.7°F5.9°C 90% 0.7 mph NE1.1 kmh NE 1.6 mph2.6 kmh 29.57 in1001.4 mb 0.00 in0.0 mm 0.00 in0.0 mm 0.34 in8.6 mm
09:05 PM 45.5°F7.5°C 42.7°F5.9°C 90% 0.8 mph NE1.3 kmh NE 1.6 mph2.6 kmh 29.57 in1001.4 mb 0.00 in0.0 mm 0.00 in0.0 mm 0.34 in8.6 mm
09:10 PM 45.4°F7.4°C 42.6°F5.9°C 90% 0.6 mph NW1.0 kmh NW 2.2 mph3.5 kmh 29.57 in1001.4 mb 0.00 in0.0 mm 0.00 in0.0 mm 0.34 in8.6 mm
09:15 PM 45.3°F7.4°C 42.6°F5.9°C 90% 0.7 mph NNW1.1 kmh NNW 1.6 mph2.6 kmh 29.57 in1001.4 mb 0.00 in0.0 mm 0.00 in0.0 mm 0.34 in8.6 mm
09:20 PM 45.3°F7.4°C 42.6°F5.9°C 90% Calm Calm 0.7 mph1.1 kmh 29.57 in1001.4 mb 0.00 in0.0 mm 0.00 in0.0 mm 0.34 in8.6 mm
09:25 PM 45.3°F7.4°C 42.6°F5.9°C 90% Calm Calm 0.7 mph1.1 kmh 29.57 in1001.4 mb 0.00 in0.0 mm 0.00 in0.0 mm 0.34 in8.6 mm
09:30 PM 45.3°F7.4°C 42.5°F5.8°C 90% 0.2 mph E0.3 kmh E 1.6 mph2.6 kmh 29.57 in1001.4 mb 0.00 in0.0 mm 0.00 in0.0 mm 0.34 in8.6 mm
09:35 PM 45.1°F7.3°C 42.4°F5.8°C 90% 0.7 mph NE1.1 kmh NE 1.6 mph2.6 kmh 29.57 in1001.4 mb 0.00 in0.0 mm 0.00 in0.0 mm 0.34 in8.6 mm
09:40 PM 45.1°F7.3°C 42.4°F5.8°C 90% 1.3 mph NE2.1 kmh NE 2.2 mph3.5 kmh 29.56 in1001.0 mb 0.00 in0.0 mm 0.00 in0.0 mm 0.34 in8.6 mm
09:45 PM 45.0°F7.2°C 42.2°F5.7°C 90% 1.2 mph 1.9 kmh 2.2 mph3.5 kmh 29.56 in1001.0 mb 0.00 in0.0 mm 0.00 in0.0 mm 0.34 in8.6 mm
09:50 PM 45.0°F7.2°C 42.2°F5.7°C 90% 1.1 mph N1.8 kmh N 2.2 mph3.5 kmh 29.57 in1001.4 mb 0.00 in0.0 mm 0.00 in0.0 mm 0.34 in8.6 mm
09:55 PM 44.8°F7.1°C 42.1°F5.6°C 90% 1.6 mph NE2.6 kmh NE 2.2 mph3.5 kmh 29.57 in1001.4 mb 0.00 in0.0 mm 0.00 in0.0 mm 0.34 in8.6 mm
10:00 PM 44.8°F7.1°C 42.0°F5.6°C 90% 1.5 mph NNE2.4 kmh NNE 2.2 mph3.5 kmh 29.56 in1001.0 mb 0.00 in0.0 mm 0.00 in0.0 mm 0.34 in8.6 mm
10:05 PM 44.8°F7.1°C 42.0°F5.6°C 90% 0.7 mph 1.1 kmh 1.6 mph2.6 kmh 29.57 in1001.4 mb 0.00 in0.0 mm 0.00 in0.0 mm 0.34 in8.6 mm
10:10 PM 44.8°F7.1°C 42.0°F5.6°C 90% 0.3 mph 0.5 kmh 1.6 mph2.6 kmh 29.57 in1001.4 mb 0.00 in0.0 mm 0.00 in0.0 mm 0.34 in8.6 mm
10:15 PM 44.7°F7.1°C 42.0°F5.6°C 90% 0.5 mph NE0.8 kmh NE 1.6 mph2.6 kmh 29.57 in1001.4 mb 0.00 in0.0 mm 0.00 in0.0 mm 0.34 in8.6 mm
10:20 PM 44.6°F7.0°C 41.9°F5.5°C 90% 0.6 mph 1.0 kmh 1.6 mph2.6 kmh 29.57 in1001.4 mb 0.00 in0.0 mm 0.00 in0.0 mm 0.34 in8.6 mm
10:25 PM 44.4°F6.9°C 41.7°F5.4°C 90% Calm Calm 0.7 mph1.1 kmh 29.57 in1001.4 mb 0.00 in0.0 mm 0.00 in0.0 mm 0.34 in8.6 mm
10:30 PM 44.4°F6.9°C 41.7°F5.4°C 90% 1.1 mph N1.8 kmh N 2.2 mph3.5 kmh 29.57 in1001.4 mb 0.00 in0.0 mm 0.00 in0.0 mm 0.34 in8.6 mm
10:35 PM 44.4°F6.9°C 41.7°F5.4°C 90% 1.6 mph N2.6 kmh N 2.2 mph3.5 kmh 29.57 in1001.4 mb 0.00 in0.0 mm 0.00 in0.0 mm 0.34 in8.6 mm
10:40 PM 44.4°F6.9°C 41.7°F5.4°C 90% 1.4 mph N2.3 kmh N 2.2 mph3.5 kmh 29.57 in1001.4 mb 0.00 in0.0 mm 0.00 in0.0 mm 0.34 in8.6 mm
10:45 PM 44.4°F6.9°C 41.7°F5.4°C 90% 1.7 mph N2.7 kmh N 3.1 mph5.0 kmh 29.57 in1001.4 mb 0.00 in0.0 mm 0.00 in0.0 mm 0.34 in8.6 mm
10:50 PM 44.3°F6.8°C 41.5°F5.3°C 90% 2.4 mph NE3.9 kmh NE 4.5 mph7.2 kmh 29.57 in1001.4 mb 0.00 in0.0 mm 0.00 in0.0 mm 0.34 in8.6 mm
10:55 PM 44.2°F6.8°C 41.4°F5.2°C 90% 2.2 mph NE3.5 kmh NE 3.8 mph6.1 kmh 29.57 in1001.4 mb 0.00 in0.0 mm 0.00 in0.0 mm 0.34 in8.6 mm
11:00 PM 44.1°F6.7°C 41.3°F5.2°C 90% 1.7 mph NNE2.7 kmh NNE 2.2 mph3.5 kmh 29.57 in1001.4 mb 0.00 in0.0 mm 0.00 in0.0 mm 0.34 in8.6 mm
11:05 PM 43.9°F6.6°C 41.2°F5.1°C 90% 1.6 mph NNE2.6 kmh NNE 2.2 mph3.5 kmh 29.58 in1001.7 mb 0.00 in0.0 mm 0.00 in0.0 mm 0.34 in8.6 mm
11:10 PM 43.9°F6.6°C 41.1°F5.1°C 90% 1.8 mph 2.9 kmh 3.1 mph5.0 kmh 29.59 in1002.0 mb 0.00 in0.0 mm 0.00 in0.0 mm 0.34 in8.6 mm
11:15 PM 43.9°F6.6°C 41.2°F5.1°C 90% 2.4 mph N3.9 kmh N 3.1 mph5.0 kmh 29.58 in1001.7 mb 0.00 in0.0 mm 0.00 in0.0 mm 0.34 in8.6 mm
11:20 PM 44.1°F6.7°C 41.3°F5.2°C 90% 3.1 mph NE5.0 kmh NE 3.8 mph6.1 kmh 29.58 in1001.7 mb 0.00 in0.0 mm 0.00 in0.0 mm 0.34 in8.6 mm
11:25 PM 43.9°F6.6°C 41.1°F5.1°C 90% 3.2 mph N5.1 kmh N 5.4 mph8.7 kmh 29.58 in1001.7 mb 0.00 in0.0 mm 0.00 in0.0 mm 0.34 in8.6 mm
11:30 PM 43.9°F6.6°C 41.2°F5.1°C 90% 3.9 mph NNW6.3 kmh NNW 5.4 mph8.7 kmh 29.59 in1002.0 mb 0.00 in0.0 mm 0.00 in0.0 mm 0.34 in8.6 mm
11:35 PM 44.1°F6.7°C 41.3°F5.2°C 90% 1.6 mph W2.6 kmh W 3.8 mph6.1 kmh 29.59 in1002.0 mb 0.00 in0.0 mm 0.00 in0.0 mm 0.34 in8.6 mm
11:40 PM 44.1°F6.7°C 41.3°F5.2°C 90% 1.6 mph E2.6 kmh E 3.1 mph5.0 kmh 29.59 in1002.0 mb 0.00 in0.0 mm 0.00 in0.0 mm 0.34 in8.6 mm
11:45 PM 44.1°F6.7°C 41.3°F5.2°C 90% 1.1 mph NNE1.8 kmh NNE 2.2 mph3.5 kmh 29.59 in1002.0 mb 0.00 in0.0 mm 0.00 in0.0 mm 0.34 in8.6 mm
11:50 PM 44.0°F6.7°C 41.2°F5.1°C 90% 0.5 mph E0.8 kmh E 2.2 mph3.5 kmh 29.59 in1002.0 mb 0.00 in0.0 mm 0.00 in0.0 mm 0.34 in8.6 mm
11:55 PM 43.9°F6.6°C 41.1°F5.1°C 90% 1.4 mph NNE2.3 kmh NNE 2.2 mph3.5 kmh 29.58 in1001.7 mb 0.00 in0.0 mm 0.00 in0.0 mm 0.34 in8.6 mm